Time;durP1;ratioP1;P1;durP2;ratioP2;P2;SDS_P1;SDS_P2;PMS_P1;PMS_P2;Temp;Humidity;BMP_temperature;BMP_pressure;BME280_temperature;BME280_humidity;BME280_pressure;Samples;Min_cycle;Max_cycle;Signal;HPM_P1;HPM_P2
2022/03/08 00:01:23;;;;;;;;;;;21.60;35.70;;;;;;5078799;28;20344;-44
2022/03/08 00:03:50;;;;;;;;;;;21.70;36.40;;;;;;5080321;28;20283;-44
2022/03/08 00:06:16;;;;;;;;;;;21.70;35.80;;;;;;5080255;28;19991;-41
2022/03/08 00:08:44;;;;;;;;;;;21.60;35.70;;;;;;5062224;28;20441;-46
2022/03/08 00:11:11;;;;;;;;;;;21.70;35.80;;;;;;5079840;28;20307;-43
2022/03/08 00:13:38;;;;;;;;;;;21.70;35.80;;;;;;5080123;28;19968;-44
2022/03/08 00:16:05;;;;;;;;;;;21.60;35.80;;;;;;5078791;28;19924;-45
2022/03/08 00:18:32;;;;;;;;;;;21.70;35.90;;;;;;5058656;28;19931;-42
2022/03/08 00:20:59;;;;;;;;;;;21.60;35.80;;;;;;5059503;28;20007;-46
2022/03/08 00:23:26;;;;;;;;;;;21.70;35.90;;;;;;5042044;28;20020;-43
2022/03/08 00:25:53;;;;;;;;;;;21.70;35.90;;;;;;5060041;28;19926;-42
2022/03/08 00:28:21;;;;;;;;;;;21.70;35.90;;;;;;5060228;28;20039;-42
2022/03/08 00:30:48;;;;;;;;;;;21.60;35.80;;;;;;5059270;28;20376;-44
2022/03/08 00:33:15;;;;;;;;;;;21.60;35.80;;;;;;5076214;28;19967;-42
2022/03/08 00:35:42;;;;;;;;;;;21.60;35.90;;;;;;5079928;28;19925;-43
2022/03/08 00:38:09;;;;;;;;;;;21.60;35.90;;;;;;5079315;28;19924;-44
2022/03/08 00:40:36;;;;;;;;;;;21.60;35.90;;;;;;5075887;28;19924;-43
2022/03/08 00:43:03;;;;;;;;;;;21.60;35.90;;;;;;5076632;28;19925;-42
2022/03/08 00:45:30;;;;;;;;;;;21.60;35.90;;;;;;5058667;28;20026;-43
2022/03/08 00:47:57;;;;;;;;;;;21.70;36.00;;;;;;5074829;28;20447;-45
2022/03/08 00:50:25;;;;;;;;;;;21.60;35.90;;;;;;5076545;28;20011;-42
2022/03/08 00:52:52;;;;;;;;;;;21.60;36.00;;;;;;5076293;28;19990;-42
2022/03/08 00:55:19;;;;;;;;;;;21.60;36.00;;;;;;5076494;28;20273;-43
2022/03/08 00:57:47;;;;;;;;;;;21.60;36.00;;;;;;5076141;28;20400;-47
2022/03/08 01:00:15;;;;;;;;;;;21.60;36.00;;;;;;5076367;28;19968;-43
2022/03/08 01:02:42;;;;;;;;;;;21.60;36.00;;;;;;5074562;28;20011;-44
2022/03/08 01:05:10;;;;;;;;;;;21.60;36.00;;;;;;5077106;28;19925;-45
2022/03/08 01:07:37;;;;;;;;;;;21.60;36.00;;;;;;5076230;28;19924;-46
2022/03/08 01:10:06;;;;;;;;;;;21.60;36.00;;;;;;5076215;28;19924;-43
2022/03/08 01:12:33;;;;;;;;;;;21.60;36.00;;;;;;5075800;28;20437;-44
2022/03/08 01:15:04;;;;;;;;;;;21.60;36.00;;;;;;5076349;28;19924;-45
2022/03/08 01:17:31;;;;;;;;;;;21.60;36.10;;;;;;5067921;28;19951;-42
2022/03/08 01:19:58;;;;;;;;;;;21.60;36.10;;;;;;5055447;28;20388;-44
2022/03/08 01:22:25;;;;;;;;;;;21.60;36.10;;;;;;5055807;28;19925;-43
2022/03/08 01:24:53;;;;;;;;;;;21.60;36.10;;;;;;5055599;28;19975;-45
2022/03/08 01:27:20;;;;;;;;;;;21.60;36.10;;;;;;5055581;28;19925;-45
2022/03/08 01:29:47;;;;;;;;;;;21.60;36.10;;;;;;5055851;28;19960;-42
2022/03/08 01:32:14;;;;;;;;;;;21.60;36.10;;;;;;5061920;28;20264;-43
2022/03/08 01:34:41;;;;;;;;;;;21.60;36.20;;;;;;5075440;28;20384;-43
2022/03/08 01:37:10;;;;;;;;;;;21.60;36.20;;;;;;5075374;28;20407;-42
2022/03/08 01:39:37;;;;;;;;;;;21.60;36.20;;;;;;5075243;28;19954;-41
2022/03/08 01:42:11;;;;;;;;;;;21.60;36.20;;;;;;5075310;28;20384;-45
2022/03/08 01:44:42;;;;;;;;;;;21.60;36.20;;;;;;5075542;28;20333;-43
2022/03/08 01:47:16;;;;;;;;;;;21.60;36.20;;;;;;5073682;28;20459;-42
2022/03/08 01:49:44;;;;;;;;;;;21.60;36.20;;;;;;5075231;28;19970;-43
2022/03/08 01:52:11;;;;;;;;;;;21.60;36.20;;;;;;5074500;28;19931;-42
2022/03/08 01:54:38;;;;;;;;;;;21.60;36.20;;;;;;5075043;28;19970;-45
2022/03/08 01:57:05;;;;;;;;;;;21.60;36.20;;;;;;5074977;28;19929;-43
2022/03/08 01:59:32;;;;;;;;;;;21.60;36.20;;;;;;5075423;28;19933;-44
2022/03/08 02:01:59;;;;;;;;;;;21.60;36.30;;;;;;5073569;28;19968;-45
2022/03/08 02:04:26;;;;;;;;;;;21.60;36.30;;;;;;5074533;28;20387;-45
2022/03/08 02:06:53;;;;;;;;;;;21.60;36.30;;;;;;5075041;28;20342;-45
2022/03/08 02:09:20;;;;;;;;;;;21.60;36.30;;;;;;5075073;28;19924;-44
2022/03/08 02:11:48;;;;;;;;;;;21.60;36.30;;;;;;5074668;28;19925;-43
2022/03/08 02:14:18;;;;;;;;;;;21.60;36.30;;;;;;5075417;28;20441;-43
2022/03/08 02:16:46;;;;;;;;;;;21.60;36.30;;;;;;5074570;28;20425;-43
2022/03/08 02:19:14;;;;;;;;;;;21.60;36.40;;;;;;5073507;28;19950;-42
2022/03/08 02:21:42;;;;;;;;;;;21.60;36.40;;;;;;5074183;28;19967;-43
2022/03/08 02:24:09;;;;;;;;;;;21.60;36.40;;;;;;5074731;28;19986;-45
2022/03/08 02:26:36;;;;;;;;;;;21.60;36.40;;;;;;5074677;28;19924;-42
2022/03/08 02:29:05;;;;;;;;;;;21.60;36.40;;;;;;5074365;28;19924;-44
2022/03/08 02:31:32;;;;;;;;;;;21.60;36.40;;;;;;5074622;28;19928;-43
2022/03/08 02:34:00;;;;;;;;;;;21.60;36.40;;;;;;5072737;28;19932;-46
2022/03/08 02:36:27;;;;;;;;;;;21.60;36.40;;;;;;5074567;28;19963;-42
2022/03/08 02:38:53;;;;;;;;;;;21.60;36.40;;;;;;5074398;28;19960;-41
2022/03/08 02:41:20;;;;;;;;;;;21.60;36.40;;;;;;5056819;28;19928;-42
2022/03/08 02:43:47;;;;;;;;;;;21.60;36.40;;;;;;5074105;28;19969;-44
2022/03/08 02:46:14;;;;;;;;;;;21.60;36.40;;;;;;5074339;28;19924;-43
2022/03/08 02:48:41;;;;;;;;;;;21.60;36.40;;;;;;5072344;28;20396;-49
2022/03/08 02:51:08;;;;;;;;;;;21.60;36.50;;;;;;5073863;28;19929;-49
2022/03/08 02:53:35;;;;;;;;;;;21.50;36.40;;;;;;5074818;28;19964;-50
2022/03/08 02:56:02;;;;;;;;;;;21.50;36.40;;;;;;5056546;28;19925;-51
2022/03/08 02:58:30;;;;;;;;;;;21.60;36.50;;;;;;5073891;28;20389;-50
2022/03/08 03:00:57;;;;;;;;;;;21.50;36.40;;;;;;5074132;28;19974;-50
2022/03/08 03:03:24;;;;;;;;;;;21.50;36.50;;;;;;5070877;28;19970;-45
2022/03/08 03:05:51;;;;;;;;;;;21.50;36.50;;;;;;5073813;28;19924;-44
2022/03/08 03:08:18;;;;;;;;;;;21.50;36.50;;;;;;5074096;28;20340;-45
2022/03/08 03:10:45;;;;;;;;;;;21.50;36.50;;;;;;5074075;28;20288;-49
2022/03/08 03:13:12;;;;;;;;;;;21.50;36.50;;;;;;5073718;28;19936;-44
2022/03/08 03:15:39;;;;;;;;;;;21.50;36.60;;;;;;5073704;28;19925;-46
2022/03/08 03:18:09;;;;;;;;;;;21.50;36.60;;;;;;5072178;28;20277;-45
2022/03/08 03:20:37;;;;;;;;;;;21.50;36.60;;;;;;5073541;28;19925;-44
2022/03/08 03:23:04;;;;;;;;;;;21.50;36.60;;;;;;5055973;28;19924;-43
2022/03/08 03:25:31;;;;;;;;;;;21.50;36.60;;;;;;5073914;28;19929;-43
2022/03/08 03:27:58;;;;;;;;;;;21.50;36.60;;;;;;5073884;28;19924;-44
2022/03/08 03:30:25;;;;;;;;;;;21.50;36.60;;;;;;5055841;28;19959;-45
2022/03/08 03:32:52;;;;;;;;;;;21.50;36.70;;;;;;5072552;28;19924;-42
2022/03/08 03:35:19;;;;;;;;;;;21.50;36.60;;;;;;5073486;28;19925;-45
2022/03/08 03:37:46;;;;;;;;;;;21.50;36.70;;;;;;5073532;28;19972;-45
2022/03/08 03:40:13;;;;;;;;;;;21.50;36.70;;;;;;5073751;28;20334;-42
2022/03/08 03:42:41;;;;;;;;;;;21.50;36.70;;;;;;5073802;28;19956;-43
2022/03/08 03:45:08;;;;;;;;;;;21.50;36.70;;;;;;5073751;28;19924;-43
2022/03/08 03:47:36;;;;;;;;;;;21.50;36.70;;;;;;5073720;28;19974;-43
2022/03/08 03:50:06;;;;;;;;;;;21.50;36.70;;;;;;5071954;28;19924;-44
2022/03/08 03:52:33;;;;;;;;;;;21.50;36.70;;;;;;5073506;28;19928;-43
2022/03/08 03:55:03;;;;;;;;;;;21.50;36.80;;;;;;5073350;28;20414;-45
2022/03/08 03:57:30;;;;;;;;;;;21.40;36.70;;;;;;5073555;28;19924;-45
2022/03/08 03:59:56;;;;;;;;;;;21.50;36.80;;;;;;5073600;28;19966;-44
2022/03/08 04:02:23;;;;;;;;;;;21.40;36.70;;;;;;5073651;28;19928;-43
2022/03/08 04:04:50;;;;;;;;;;;21.40;36.70;;;;;;5071344;28;20430;-45
2022/03/08 04:07:17;;;;;;;;;;;21.40;36.70;;;;;;5073935;28;19951;-48
2022/03/08 04:09:44;;;;;;;;;;;21.40;36.70;;;;;;5073506;28;20015;-50
2022/03/08 04:12:11;;;;;;;;;;;21.40;36.80;;;;;;5055500;28;19979;-51
2022/03/08 04:14:38;;;;;;;;;;;21.40;36.80;;;;;;5075350;28;19963;-46
2022/03/08 04:17:05;;;;;;;;;;;21.40;36.80;;;;;;5077212;28;19925;-47
2022/03/08 04:19:32;;;;;;;;;;;21.40;36.80;;;;;;5064925;28;19956;-50
2022/03/08 04:21:59;;;;;;;;;;;21.40;36.90;;;;;;5056764;28;19970;-48
2022/03/08 04:24:27;;;;;;;;;;;21.40;36.90;;;;;;5056740;28;20388;-51
2022/03/08 04:26:54;;;;;;;;;;;21.40;36.90;;;;;;5057021;28;19929;-51
2022/03/08 04:29:21;;;;;;;;;;;21.40;36.90;;;;;;5056971;28;20339;-51
2022/03/08 04:31:48;;;;;;;;;;;21.40;36.90;;;;;;5056520;28;20327;-47
2022/03/08 04:34:15;;;;;;;;;;;21.40;36.90;;;;;;5063221;28;20387;-49
2022/03/08 04:36:42;;;;;;;;;;;21.40;36.90;;;;;;5076834;28;19960;-48
2022/03/08 04:39:09;;;;;;;;;;;21.40;36.90;;;;;;5076306;28;20269;-48
2022/03/08 04:41:36;;;;;;;;;;;21.40;36.90;;;;;;5076397;28;20011;-49
2022/03/08 04:44:03;;;;;;;;;;;21.40;36.90;;;;;;5076250;28;20448;-46
2022/03/08 04:46:30;;;;;;;;;;;21.40;36.90;;;;;;5076360;28;20448;-48
2022/03/08 04:48:57;;;;;;;;;;;21.40;36.90;;;;;;5075205;28;19928;-45
2022/03/08 04:51:24;;;;;;;;;;;21.40;37.00;;;;;;5076427;28;20295;-44
2022/03/08 04:53:51;;;;;;;;;;;21.40;37.00;;;;;;5076556;28;20303;-45
2022/03/08 04:56:18;;;;;;;;;;;21.40;37.00;;;;;;5058772;28;19960;-44
2022/03/08 04:58:46;;;;;;;;;;;21.40;37.00;;;;;;5076124;28;20376;-47
2022/03/08 05:01:18;;;;;;;;;;;21.40;37.00;;;;;;5076069;28;19924;-47
2022/03/08 05:03:45;;;;;;;;;;;21.40;37.00;;;;;;5075057;28;20363;-46
2022/03/08 05:06:12;;;;;;;;;;;21.30;37.00;;;;;;5058371;28;19925;-47
2022/03/08 05:08:39;;;;;;;;;;;21.30;37.00;;;;;;5076247;28;20371;-48
2022/03/08 05:11:06;;;;;;;;;;;21.30;37.00;;;;;;5075917;28;19964;-43
2022/03/08 05:13:33;;;;;;;;;;;21.30;37.00;;;;;;5075730;28;19925;-46
2022/03/08 05:16:00;;;;;;;;;;;21.40;37.10;;;;;;5076099;28;19925;-45
2022/03/08 05:18:28;;;;;;;;;;;21.30;37.00;;;;;;5076086;28;19925;-46
2022/03/08 05:20:55;;;;;;;;;;;21.30;37.00;;;;;;5057237;28;19968;-43
2022/03/08 05:23:22;;;;;;;;;;;21.30;37.00;;;;;;5056380;28;20285;-46
2022/03/08 05:25:49;;;;;;;;;;;21.30;37.00;;;;;;5055631;28;19925;-44
2022/03/08 05:28:15;;;;;;;;;;;21.30;37.00;;;;;;5055482;28;19928;-43
2022/03/08 05:30:44;;;;;;;;;;;21.30;37.00;;;;;;5055820;28;20342;-44
2022/03/08 05:33:11;;;;;;;;;;;21.30;37.10;;;;;;5055668;28;19974;-41
2022/03/08 05:35:38;;;;;;;;;;;21.30;37.10;;;;;;5067504;28;20042;-42
2022/03/08 05:38:05;;;;;;;;;;;21.30;37.10;;;;;;5076216;28;19975;-46
2022/03/08 05:40:33;;;;;;;;;;;21.30;37.10;;;;;;5075818;28;19928;-42
2022/03/08 05:43:01;;;;;;;;;;;21.30;37.10;;;;;;5075609;28;19967;-45
2022/03/08 05:45:29;;;;;;;;;;;21.30;37.10;;;;;;5075527;28;19924;-42
2022/03/08 05:47:56;;;;;;;;;;;21.30;37.10;;;;;;5075208;28;19932;-42
2022/03/08 05:50:23;;;;;;;;;;;21.30;37.10;;;;;;5073812;28;20431;-42
2022/03/08 05:52:50;;;;;;;;;;;21.30;37.10;;;;;;5075458;28;20047;-43
2022/03/08 05:55:17;;;;;;;;;;;21.30;37.10;;;;;;5075395;28;20348;-44
2022/03/08 05:57:44;;;;;;;;;;;21.30;37.10;;;;;;5075011;28;19925;-43
2022/03/08 06:00:11;;;;;;;;;;;21.30;37.10;;;;;;5075196;28;19963;-43
2022/03/08 06:02:38;;;;;;;;;;;21.30;37.10;;;;;;5074830;28;19925;-51
2022/03/08 06:05:06;;;;;;;;;;;21.30;37.10;;;;;;5073727;28;20341;-49
2022/03/08 06:07:33;;;;;;;;;;;21.30;37.10;;;;;;5074803;28;19955;-50
2022/03/08 06:10:00;;;;;;;;;;;21.30;37.10;;;;;;5075235;28;19925;-50
2022/03/08 06:12:27;;;;;;;;;;;21.30;37.10;;;;;;5075015;28;20347;-46
2022/03/08 06:14:55;;;;;;;;;;;21.30;37.10;;;;;;5074863;28;19970;-47
2022/03/08 06:17:22;;;;;;;;;;;21.30;37.10;;;;;;5074603;28;20346;-50
2022/03/08 06:19:49;;;;;;;;;;;21.40;37.20;;;;;;5073003;28;19997;-49
2022/03/08 06:22:16;;;;;;;;;;;21.30;37.10;;;;;;5074381;28;20426;-50
2022/03/08 06:24:43;;;;;;;;;;;21.30;37.10;;;;;;5074340;28;19929;-43
2022/03/08 06:27:10;;;;;;;;;;;21.30;37.10;;;;;;5074381;28;20396;-49
2022/03/08 06:29:37;;;;;;;;;;;21.30;37.10;;;;;;5074588;28;19986;-48
2022/03/08 06:32:04;;;;;;;;;;;21.30;37.10;;;;;;5074476;28;19956;-45
2022/03/08 06:34:31;;;;;;;;;;;21.30;37.10;;;;;;5074220;28;19924;-45
2022/03/08 06:36:58;;;;;;;;;;;21.30;37.10;;;;;;5072567;28;20338;-47
2022/03/08 06:39:25;;;;;;;;;;;21.30;37.10;;;;;;5074115;28;19954;-48
2022/03/08 06:41:52;;;;;;;;;;;21.40;37.20;;;;;;5074034;28;19982;-44
2022/03/08 06:44:19;;;;;;;;;;;21.40;37.70;;;;;;5074015;28;19924;-42
2022/03/08 06:46:46;;;;;;;;;;;21.40;37.10;;;;;;5074035;28;19925;-43
2022/03/08 06:49:14;;;;;;;;;;;21.40;37.10;;;;;;5074054;28;19924;-45
2022/03/08 06:51:41;;;;;;;;;;;21.40;37.10;;;;;;5072477;28;20296;-47
2022/03/08 06:54:08;;;;;;;;;;;21.40;37.10;;;;;;5073808;28;19970;-44
2022/03/08 06:56:36;;;;;;;;;;;21.40;37.10;;;;;;5073882;28;19978;-44
2022/03/08 06:59:04;;;;;;;;;;;21.40;37.10;;;;;;5056125;28;20368;-42
2022/03/08 07:01:31;;;;;;;;;;;21.40;37.10;;;;;;5074533;28;19978;-43
2022/03/08 07:03:58;;;;;;;;;;;21.40;37.10;;;;;;5073730;28;20617;-45
2022/03/08 07:06:25;;;;;;;;;;;21.40;37.10;;;;;;5072377;28;19924;-42
2022/03/08 07:08:53;;;;;;;;;;;21.40;37.10;;;;;;5073774;28;20396;-44
2022/03/08 07:11:20;;;;;;;;;;;21.40;37.10;;;;;;5074091;28;19946;-45
2022/03/08 07:13:47;;;;;;;;;;;21.40;37.10;;;;;;5073746;28;19971;-44
2022/03/08 07:16:14;;;;;;;;;;;21.40;37.00;;;;;;5074084;28;20339;-44
2022/03/08 07:18:41;;;;;;;;;;;21.40;37.00;;;;;;5073849;28;19946;-45
2022/03/08 07:21:08;;;;;;;;;;;21.50;37.00;;;;;;5063918;28;19925;-44
2022/03/08 07:23:35;;;;;;;;;;;21.50;37.00;;;;;;5053574;28;19947;-46
2022/03/08 07:26:02;;;;;;;;;;;21.50;37.00;;;;;;5053838;28;19972;-45
2022/03/08 07:28:29;;;;;;;;;;;21.50;36.90;;;;;;5053817;28;20346;-42
2022/03/08 07:30:59;;;;;;;;;;;21.50;36.90;;;;;;5053516;28;19967;-44
2022/03/08 07:33:27;;;;;;;;;;;21.50;36.90;;;;;;5053707;28;19925;-49
2022/03/08 07:35:54;;;;;;;;;;;21.50;36.90;;;;;;5053009;28;19948;-50
2022/03/08 07:38:21;;;;;;;;;;;21.50;36.90;;;;;;5053440;28;19925;-50
2022/03/08 07:40:48;;;;;;;;;;;21.50;36.80;;;;;;5053288;28;19925;-51
2022/03/08 07:43:15;;;;;;;;;;;21.50;36.80;;;;;;5053728;28;19925;-51
2022/03/08 07:45:42;;;;;;;;;;;21.50;36.80;;;;;;5053408;28;19929;-50
2022/03/08 07:48:09;;;;;;;;;;;21.60;36.90;;;;;;5055036;28;20019;-49
2022/03/08 07:50:36;;;;;;;;;;;21.60;36.80;;;;;;5056947;28;19925;-48
2022/03/08 07:53:04;;;;;;;;;;;21.60;36.80;;;;;;5057498;28;20269;-50
2022/03/08 07:55:32;;;;;;;;;;;21.60;36.80;;;;;;5057318;28;19939;-46
2022/03/08 07:57:59;;;;;;;;;;;21.60;36.70;;;;;;5057220;28;19968;-50
2022/03/08 08:00:29;;;;;;;;;;;21.60;36.70;;;;;;5058028;28;19931;-45
2022/03/08 08:02:56;;;;;;;;;;;21.60;36.70;;;;;;5057399;28;20292;-43
2022/03/08 08:05:24;;;;;;;;;;;21.60;36.70;;;;;;5057134;28;20008;-46
2022/03/08 08:07:51;;;;;;;;;;;21.60;36.70;;;;;;5074646;28;19925;-45
2022/03/08 08:10:18;;;;;;;;;;;21.70;36.70;;;;;;5077342;28;19924;-42
2022/03/08 08:12:45;;;;;;;;;;;21.70;36.70;;;;;;5077317;28;20335;-42
2022/03/08 08:15:12;;;;;;;;;;;21.70;36.70;;;;;;5077223;28;19932;-45
2022/03/08 08:17:39;;;;;;;;;;;21.70;36.70;;;;;;5076892;28;20449;-43
2022/03/08 08:20:08;;;;;;;;;;;21.70;36.60;;;;;;5076666;28;20437;-42
2022/03/08 08:22:35;;;;;;;;;;;21.70;36.60;;;;;;5075577;28;19925;-43
2022/03/08 08:25:03;;;;;;;;;;;21.70;36.60;;;;;;5077045;28;19928;-43
2022/03/08 08:27:30;;;;;;;;;;;21.70;36.50;;;;;;5076684;28;20011;-43
2022/03/08 08:29:57;;;;;;;;;;;21.80;36.60;;;;;;5076978;28;19987;-43
2022/03/08 08:32:24;;;;;;;;;;;21.80;36.60;;;;;;5076445;28;19924;-46
2022/03/08 08:34:51;;;;;;;;;;;21.80;36.50;;;;;;5076810;28;19924;-42
2022/03/08 08:37:18;;;;;;;;;;;21.80;36.50;;;;;;5046130;28;19931;-43
2022/03/08 08:39:45;;;;;;;;;;;21.80;36.50;;;;;;5056736;28;20335;-44
2022/03/08 08:42:12;;;;;;;;;;;21.80;36.50;;;;;;5056982;28;19925;-44
2022/03/08 08:44:44;;;;;;;;;;;21.80;36.60;;;;;;5056429;28;19939;-42
2022/03/08 08:47:12;;;;;;;;;;;21.80;36.50;;;;;;5056361;28;19925;-44
2022/03/08 08:49:39;;;;;;;;;;;21.80;36.60;;;;;;5056321;28;19925;-45
2022/03/08 08:52:06;;;;;;;;;;;21.80;36.60;;;;;;5063565;28;19924;-45
2022/03/08 08:54:33;;;;;;;;;;;21.80;36.60;;;;;;5076502;28;20342;-42
2022/03/08 08:57:00;;;;;;;;;;;21.80;36.60;;;;;;5076463;28;19925;-44
2022/03/08 08:59:27;;;;;;;;;;;21.80;36.60;;;;;;5075756;28;19925;-43
2022/03/08 09:01:54;;;;;;;;;;;21.80;36.60;;;;;;5076173;28;20359;-42
2022/03/08 09:04:22;;;;;;;;;;;21.80;36.60;;;;;;5076336;28;19931;-46
2022/03/08 09:06:49;;;;;;;;;;;21.80;36.60;;;;;;5075422;28;20326;-47
2022/03/08 09:09:16;;;;;;;;;;;21.80;36.60;;;;;;5075919;28;19925;-44
2022/03/08 09:11:43;;;;;;;;;;;21.80;36.60;;;;;;5075914;28;19950;-45
2022/03/08 09:14:10;;;;;;;;;;;21.80;36.60;;;;;;5075838;28;20407;-42
2022/03/08 09:16:36;;;;;;;;;;;21.80;36.60;;;;;;5075795;28;20376;-46
2022/03/08 09:19:04;;;;;;;;;;;21.80;36.60;;;;;;5076036;28;19967;-48
2022/03/08 09:21:31;;;;;;;;;;;21.80;36.70;;;;;;5073539;28;19963;-49
2022/03/08 09:23:58;;;;;;;;;;;21.80;36.70;;;;;;5055968;28;19990;-49
2022/03/08 09:26:24;;;;;;;;;;;21.90;36.70;;;;;;5054389;28;19925;-45
2022/03/08 09:28:52;;;;;;;;;;;21.90;36.70;;;;;;5055551;28;19925;-51
2022/03/08 09:31:19;;;;;;;;;;;21.90;36.70;;;;;;5055411;28;19990;-51
2022/03/08 09:33:46;;;;;;;;;;;21.90;36.80;;;;;;5055822;28;20376;-46
2022/03/08 09:36:13;;;;;;;;;;;21.90;36.80;;;;;;5055687;28;19929;-45
2022/03/08 09:38:40;;;;;;;;;;;21.90;36.80;;;;;;5072193;28;19966;-46
2022/03/08 09:41:07;;;;;;;;;;;21.90;36.80;;;;;;5075517;28;19971;-45
2022/03/08 09:43:35;;;;;;;;;;;21.90;36.90;;;;;;5075309;28;19925;-48
2022/03/08 09:46:03;;;;;;;;;;;22.00;36.90;;;;;;5075789;28;19924;-47
2022/03/08 09:48:30;;;;;;;;;;;22.00;36.90;;;;;;5075555;28;19931;-45
2022/03/08 09:51:01;;;;;;;;;;;22.00;37.00;;;;;;5075230;28;19974;-45
2022/03/08 09:53:29;;;;;;;;;;;22.00;37.00;;;;;;5073423;28;19939;-45
2022/03/08 09:55:58;;;;;;;;;;;22.00;37.00;;;;;;5075357;28;19925;-48
2022/03/08 09:58:30;;;;;;;;;;;22.00;37.00;;;;;;5075271;28;19932;-49
2022/03/08 10:01:00;;;;;;;;;;;22.00;37.00;;;;;;5074871;28;19925;-46
2022/03/08 10:03:34;;;;;;;;;;;22.00;37.00;;;;;;5075302;28;19924;-44
2022/03/08 10:06:03;;;;;;;;;;;22.10;37.10;;;;;;5075178;28;20334;-44
2022/03/08 10:08:30;;;;;;;;;;;22.10;37.10;;;;;;5074011;28;19925;-44
2022/03/08 10:11:01;;;;;;;;;;;22.10;37.10;;;;;;5074544;28;19964;-48
2022/03/08 10:13:46;;;;;;;;;;;22.10;37.10;;;;;;5074497;28;19935;-42
2022/03/08 10:16:26;;;;;;;;;;;22.10;37.10;;;;;;5074596;28;19971;-46
2022/03/08 10:18:54;;;;;;;;;;;22.10;37.00;;;;;;5075218;28;20032;-45
2022/03/08 10:21:27;;;;;;;;;;;22.10;37.00;;;;;;5074119;28;19983;-43
2022/03/08 10:23:55;;;;;;;;;;;22.10;37.00;;;;;;5073191;28;19985;-42
2022/03/08 10:26:22;;;;;;;;;;;22.10;37.00;;;;;;5074378;28;19932;-43
2022/03/08 10:28:50;;;;;;;;;;;22.20;37.10;;;;;;5074616;28;19981;-41
2022/03/08 10:31:18;;;;;;;;;;;22.20;37.00;;;;;;5074455;28;19977;-41
2022/03/08 10:33:46;;;;;;;;;;;22.20;37.00;;;;;;5074298;28;19946;-43
2022/03/08 10:36:16;;;;;;;;;;;22.20;37.00;;;;;;5074528;28;20014;-45
2022/03/08 10:39:01;;;;;;;;;;;22.20;37.00;;;;;;5072751;28;19975;-43
2022/03/08 10:41:28;;;;;;;;;;;22.20;37.00;;;;;;5074127;28;19982;-46
2022/03/08 10:43:56;;;;;;;;;;;22.20;37.00;;;;;;5074666;28;20007;-45
2022/03/08 10:46:24;;;;;;;;;;;22.20;37.00;;;;;;5074450;28;19967;-41
2022/03/08 10:48:52;;;;;;;;;;;22.20;37.00;;;;;;5074381;28;19978;-42
2022/03/08 10:51:19;;;;;;;;;;;22.30;37.00;;;;;;5073844;28;19929;-43
2022/03/08 10:53:47;;;;;;;;;;;22.30;37.00;;;;;;5072484;28;19924;-43
2022/03/08 10:56:23;;;;;;;;;;;22.30;37.00;;;;;;5073916;28;19954;-42
2022/03/08 10:58:51;;;;;;;;;;;22.30;37.00;;;;;;5074373;28;19932;-47
2022/03/08 11:01:19;;;;;;;;;;;22.30;37.00;;;;;;5073978;28;20277;-50
2022/03/08 11:03:56;;;;;;;;;;;22.30;37.00;;;;;;5073982;28;19924;-49
2022/03/08 11:06:24;;;;;;;;;;;22.30;37.00;;;;;;5073833;28;19929;-49
2022/03/08 11:08:52;;;;;;;;;;;22.40;37.10;;;;;;5054100;28;19925;-48
2022/03/08 11:11:21;;;;;;;;;;;22.40;37.00;;;;;;5072440;28;19924;-44
2022/03/08 11:13:54;;;;;;;;;;;22.40;37.00;;;;;;5072856;28;19967;-47
2022/03/08 11:16:21;;;;;;;;;;;22.40;37.00;;;;;;5072584;28;20375;-43
2022/03/08 11:18:50;;;;;;;;;;;22.40;37.00;;;;;;5076618;28;19971;-44
2022/03/08 11:21:17;;;;;;;;;;;22.40;37.00;;;;;;5072753;28;19954;-46
2022/03/08 11:23:45;;;;;;;;;;;22.40;37.00;;;;;;5065399;28;19970;-41
2022/03/08 11:26:18;;;;;;;;;;;22.40;37.10;;;;;;5087658;28;19955;-42
2022/03/08 11:28:48;;;;;;;;;;;22.40;37.00;;;;;;5068950;28;19925;-44
2022/03/08 11:31:20;;;;;;;;;;;22.50;37.20;;;;;;5085964;28;20345;-42
2022/03/08 11:33:47;;;;;;;;;;;22.50;37.20;;;;;;5086038;28;20329;-41
2022/03/08 11:36:33;;;;;;;;;;;22.50;37.20;;;;;;5077352;28;19954;-45
2022/03/08 11:39:19;;;;;;;;;;;22.50;37.30;;;;;;5068538;28;19924;-44
2022/03/08 11:41:48;;;;;;;;;;;22.50;37.30;;;;;;5089956;28;20528;-45
2022/03/08 11:44:24;;;;;;;;;;;22.50;37.40;;;;;;5077290;28;19971;-44
2022/03/08 11:47:17;;;;;;;;;;;22.50;37.50;;;;;;5075259;28;19947;-44
2022/03/08 11:49:55;;;;;;;;;;;22.50;38.20;;;;;;5073934;28;19924;-42
2022/03/08 11:52:31;;;;;;;;;;;22.50;38.60;;;;;;5081578;28;20419;-44
2022/03/08 11:55:06;;;;;;;;;;;22.60;38.50;;;;;;5070496;28;19924;-41
2022/03/08 11:57:42;;;;;;;;;;;22.60;38.40;;;;;;5086062;28;19935;-42
2022/03/08 12:00:18;;;;;;;;;;;22.60;38.30;;;;;;5076711;28;20008;-41
2022/03/08 12:02:46;;;;;;;;;;;22.60;38.30;;;;;;5086938;28;19978;-44
2022/03/08 12:05:32;;;;;;;;;;;22.60;38.30;;;;;;5080754;28;19971;-44
2022/03/08 12:08:19;;;;;;;;;;;22.70;38.50;;;;;;5078764;28;19925;-43
2022/03/08 12:10:47;;;;;;;;;;;22.70;38.50;;;;;;5074042;28;19978;-43
2022/03/08 12:13:23;;;;;;;;;;;22.70;38.60;;;;;;5084264;28;19924;-44
2022/03/08 12:16:05;;;;;;;;;;;22.70;38.70;;;;;;5076462;28;19925;-42
2022/03/08 12:18:37;;;;;;;;;;;22.70;38.70;;;;;;5073747;28;19964;-42
2022/03/08 12:21:16;;;;;;;;;;;22.70;38.70;;;;;;5076077;28;20292;-49
2022/03/08 12:23:50;;;;;;;;;;;22.70;38.80;;;;;;5080030;28;20467;-45
2022/03/08 12:26:36;;;;;;;;;;;22.70;38.90;;;;;;5086881;28;19934;-46
2022/03/08 12:29:27;;;;;;;;;;;22.70;38.90;;;;;;5065229;28;20433;-42
2022/03/08 12:31:57;;;;;;;;;;;22.70;38.90;;;;;;5082294;28;19982;-41
2022/03/08 12:34:39;;;;;;;;;;;22.70;39.00;;;;;;5083777;28;19928;-45
2022/03/08 12:37:41;;;;;;;;;;;22.70;39.10;;;;;;5069721;28;20423;-43
2022/03/08 12:40:10;;;;;;;;;;;22.70;39.10;;;;;;5093285;28;20281;-44
2022/03/08 12:42:39;;;;;;;;;;;22.80;39.20;;;;;;5079638;28;19925;-41
2022/03/08 12:45:31;;;;;;;;;;;22.80;39.30;;;;;;5068490;28;20346;-41
2022/03/08 12:48:17;;;;;;;;;;;22.80;39.30;;;;;;5085521;28;19925;-42
2022/03/08 12:50:48;;;;;;;;;;;22.80;39.30;;;;;;5092808;28;19925;-43
2022/03/08 12:53:24;;;;;;;;;;;22.80;39.60;;;;;;5058268;28;19928;-42
2022/03/08 12:55:52;;;;;;;;;;;22.80;39.60;;;;;;5069159;28;20447;-42
2022/03/08 12:58:20;;;;;;;;;;;22.80;39.60;;;;;;5090439;28;19954;-41
2022/03/08 13:00:56;;;;;;;;;;;22.80;39.60;;;;;;5062034;28;19929;-41
2022/03/08 13:03:26;;;;;;;;;;;22.80;39.60;;;;;;5089576;28;19934;-41
2022/03/08 13:05:54;;;;;;;;;;;22.80;39.60;;;;;;5086316;28;19924;-41
2022/03/08 13:08:23;;;;;;;;;;;22.80;39.60;;;;;;5081180;28;20304;-41
2022/03/08 13:10:54;;;;;;;;;;;22.80;39.70;;;;;;5059851;28;19936;-42
2022/03/08 13:13:42;;;;;;;;;;;22.90;39.70;;;;;;5073061;28;20460;-41
2022/03/08 13:16:10;;;;;;;;;;;22.90;39.70;;;;;;5083661;28;19924;-41
2022/03/08 13:18:38;;;;;;;;;;;22.90;39.90;;;;;;5092576;28;19924;-41
2022/03/08 13:21:06;;;;;;;;;;;22.80;40.10;;;;;;5055591;28;19947;-43
2022/03/08 13:23:38;;;;;;;;;;;22.90;40.20;;;;;;5055648;28;20048;-42
2022/03/08 13:26:06;;;;;;;;;;;22.90;40.20;;;;;;5072699;28;19960;-47
2022/03/08 13:28:38;;;;;;;;;;;22.90;40.30;;;;;;5075598;28;20425;-47
2022/03/08 13:31:06;;;;;;;;;;;22.90;40.30;;;;;;5056110;28;19925;-43
2022/03/08 13:33:36;;;;;;;;;;;22.90;40.60;;;;;;5075686;28;19986;-42
2022/03/08 13:36:04;;;;;;;;;;;22.90;40.60;;;;;;5075153;28;19928;-41
2022/03/08 13:38:32;;;;;;;;;;;22.90;40.70;;;;;;5071098;28;19982;-44
2022/03/08 13:41:00;;;;;;;;;;;22.90;40.70;;;;;;5070177;28;19924;-42
2022/03/08 13:43:29;;;;;;;;;;;22.90;40.60;;;;;;5075129;28;20020;-45
2022/03/08 13:46:16;;;;;;;;;;;22.90;40.80;;;;;;5075000;28;19924;-43
2022/03/08 13:48:45;;;;;;;;;;;22.90;40.90;;;;;;5075146;28;19924;-42
2022/03/08 13:51:12;;;;;;;;;;;22.90;41.10;;;;;;5074036;28;19970;-42
2022/03/08 13:53:39;;;;;;;;;;;22.90;41.10;;;;;;5080467;28;19924;-43
2022/03/08 13:56:07;;;;;;;;;;;22.90;41.00;;;;;;5074338;28;19978;-45
2022/03/08 13:58:41;;;;;;;;;;;23.00;41.00;;;;;;5074604;28;19978;-45
2022/03/08 14:01:09;;;;;;;;;;;22.90;40.80;;;;;;5074775;28;19924;-43
2022/03/08 14:03:42;;;;;;;;;;;23.00;40.80;;;;;;5074933;28;19947;-43
2022/03/08 14:06:16;;;;;;;;;;;23.00;40.70;;;;;;5075134;28;20296;-42
2022/03/08 14:08:47;;;;;;;;;;;23.00;40.50;;;;;;5075057;28;19928;-44
2022/03/08 14:11:16;;;;;;;;;;;23.00;40.40;;;;;;5054723;28;19928;-43
2022/03/08 14:13:56;;;;;;;;;;;23.00;40.20;;;;;;5074683;28;19970;-41
2022/03/08 14:16:42;;;;;;;;;;;23.00;40.10;;;;;;5074602;28;19931;-49
2022/03/08 14:19:09;;;;;;;;;;;23.00;40.00;;;;;;5074896;28;19925;-53
2022/03/08 14:21:37;;;;;;;;;;;23.00;39.80;;;;;;5074162;28;19975;-46
2022/03/08 14:24:24;;;;;;;;;;;23.00;39.60;;;;;;5074476;28;19974;-46
2022/03/08 14:26:57;;;;;;;;;;;23.00;39.50;;;;;;5055232;28;19964;-52